createdAt,value
2023-03-26T00:00:27.397Z,5.90
2023-03-26T00:03:22.786Z,4.60
2023-03-26T00:06:08.353Z,4.90
2023-03-26T00:08:45.916Z,7.10
2023-03-26T00:11:24.944Z,7.40
2023-03-26T00:14:03.092Z,9.20
2023-03-26T00:16:39.065Z,7.00
2023-03-26T00:19:19.021Z,5.90
2023-03-26T00:21:54.674Z,6.80
2023-03-26T00:24:33.002Z,15.60
2023-03-26T00:27:09.476Z,9.30
2023-03-26T00:29:52.409Z,12.00
2023-03-26T00:32:28.515Z,15.40
2023-03-26T00:35:06.621Z,14.80
2023-03-26T00:37:48.594Z,10.80
2023-03-26T00:40:25.619Z,8.00
2023-03-26T00:43:02.652Z,7.90
2023-03-26T00:45:41.953Z,8.90
2023-03-26T00:48:18.244Z,10.90
2023-03-26T00:50:54.210Z,12.30
2023-03-26T00:53:32.482Z,16.00
2023-03-26T00:56:13.628Z,12.10
2023-03-26T00:58:53.343Z,10.30
2023-03-26T01:01:38.068Z,7.80
2023-03-26T01:04:38.976Z,6.40
2023-03-26T01:07:22.780Z,7.00
2023-03-26T01:10:33.880Z,7.20
2023-03-26T01:13:17.033Z,7.00
2023-03-26T01:15:53.636Z,7.30
2023-03-26T01:18:41.759Z,6.60
2023-03-26T01:21:23.751Z,8.70
2023-03-26T01:24:05.474Z,6.80
2023-03-26T01:27:08.614Z,7.00
2023-03-26T01:29:57.537Z,6.40
2023-03-26T01:32:51.475Z,7.00
2023-03-26T01:35:51.167Z,6.40
2023-03-26T01:38:40.512Z,6.70
2023-03-26T01:41:23.044Z,6.90
2023-03-26T01:44:12.890Z,7.00
2023-03-26T01:46:49.751Z,6.50
2023-03-26T01:49:31.990Z,6.40
2023-03-26T01:52:16.087Z,6.40
2023-03-26T01:54:52.965Z,5.70
2023-03-26T01:57:53.354Z,6.40
2023-03-26T02:00:36.298Z,6.40
2023-03-26T02:03:28.085Z,6.40
2023-03-26T02:06:16.727Z,6.20
2023-03-26T02:09:02.539Z,5.90
2023-03-26T02:11:41.137Z,6.20
2023-03-26T02:14:19.458Z,6.60
2023-03-26T02:16:59.013Z,6.40
2023-03-26T02:19:37.604Z,5.70
2023-03-26T02:22:17.167Z,6.30
2023-03-26T02:24:56.115Z,5.90
2023-03-26T02:27:33.065Z,6.00
2023-03-26T02:30:13.010Z,6.10
2023-03-26T02:32:53.379Z,6.10
2023-03-26T02:35:30.995Z,5.70
2023-03-26T02:38:10.980Z,5.20
2023-03-26T02:40:46.510Z,5.70
2023-03-26T02:43:22.884Z,4.90
2023-03-26T02:45:59.717Z,4.50
2023-03-26T02:49:12.278Z,4.90
2023-03-26T02:51:56.369Z,4.50
2023-03-26T02:54:42.882Z,4.70
2023-03-26T02:57:41.605Z,4.40
2023-03-26T03:00:39.401Z,4.40
2023-03-26T03:03:35.437Z,4.50
2023-03-26T03:06:20.206Z,4.40
2023-03-26T03:09:08.918Z,5.00
2023-03-26T03:11:45.438Z,5.10
2023-03-26T03:14:21.379Z,4.80
2023-03-26T03:17:03.657Z,4.80
2023-03-26T03:19:39.893Z,5.80
2023-03-26T03:22:15.816Z,5.20
2023-03-26T03:24:58.091Z,4.60
2023-03-26T03:27:34.658Z,5.00
2023-03-26T03:30:18.088Z,5.20
2023-03-26T03:32:54.191Z,5.20
2023-03-26T03:35:30.279Z,5.50
2023-03-26T03:38:07.853Z,4.60
2023-03-26T03:40:54.218Z,4.70
2023-03-26T03:43:35.635Z,4.70
2023-03-26T03:46:37.596Z,4.00
2023-03-26T03:49:14.941Z,3.80
2023-03-26T03:51:51.983Z,3.60
2023-03-26T03:54:43.916Z,3.80
2023-03-26T03:57:44.788Z,3.10
2023-03-26T04:00:27.186Z,3.10
2023-03-26T04:03:33.148Z,2.90
2023-03-26T04:06:14.034Z,2.50
2023-03-26T04:08:53.244Z,2.60
2023-03-26T04:11:28.326Z,2.40
2023-03-26T04:14:37.171Z,2.50
2023-03-26T04:17:24.629Z,2.10
2023-03-26T04:20:11.746Z,2.00
2023-03-26T04:22:51.298Z,2.50
2023-03-26T04:25:30.599Z,2.20
2023-03-26T04:28:20.383Z,2.30
2023-03-26T04:31:25.004Z,2.40
2023-03-26T04:34:08.010Z,2.40
2023-03-26T04:36:56.135Z,2.30
2023-03-26T04:39:37.481Z,2.40
2023-03-26T04:42:44.001Z,2.70
2023-03-26T04:45:43.625Z,2.70
2023-03-26T04:48:20.600Z,2.40
2023-03-26T04:50:59.576Z,3.10
2023-03-26T04:53:38.847Z,2.80
2023-03-26T04:56:47.916Z,2.70
2023-03-26T04:59:51.112Z,2.70
2023-03-26T05:02:28.352Z,2.70
2023-03-26T05:05:03.818Z,2.60
2023-03-26T05:07:44.988Z,2.70
2023-03-26T05:10:22.996Z,2.90
2023-03-26T05:13:08.001Z,2.70
2023-03-26T05:15:49.168Z,2.70
2023-03-26T05:18:39.009Z,2.50
2023-03-26T05:21:20.009Z,2.30
2023-03-26T05:24:00.468Z,2.60
2023-03-26T05:26:41.214Z,2.70
2023-03-26T05:29:17.978Z,2.80
2023-03-26T05:31:58.229Z,2.90
2023-03-26T05:34:36.690Z,2.80
2023-03-26T05:37:14.724Z,3.40
2023-03-26T05:40:12.071Z,3.50
2023-03-26T05:43:27.984Z,3.80
2023-03-26T05:46:24.236Z,3.60
2023-03-26T05:49:04.014Z,4.40
2023-03-26T05:51:43.752Z,4.20
2023-03-26T05:54:44.810Z,4.60
2023-03-26T05:57:43.358Z,4.00
2023-03-26T06:00:49.763Z,4.10
2023-03-26T06:03:30.030Z,4.10
2023-03-26T06:06:24.964Z,4.00
2023-03-26T06:09:06.835Z,4.10
2023-03-26T06:11:43.951Z,4.50
2023-03-26T06:14:22.310Z,4.70
2023-03-26T06:17:27.047Z,4.80
2023-03-26T06:20:19.210Z,4.50
2023-03-26T06:22:59.046Z,4.50
2023-03-26T06:25:59.278Z,3.80
2023-03-26T06:29:05.229Z,3.80
2023-03-26T06:32:12.490Z,4.00
2023-03-26T06:35:03.136Z,4.60
2023-03-26T06:37:38.215Z,4.00
2023-03-26T06:40:20.470Z,5.00
2023-03-26T06:43:18.055Z,4.40
2023-03-26T06:46:19.727Z,4.30
2023-03-26T06:49:18.892Z,4.40
2023-03-26T06:52:20.634Z,4.20
2023-03-26T06:55:21.552Z,4.70
2023-03-26T06:58:42.022Z,4.70
2023-03-26T07:01:41.971Z,4.50
2023-03-26T07:04:38.216Z,4.40
2023-03-26T07:07:45.822Z,4.50
2023-03-26T07:10:41.338Z,4.30
2023-03-26T07:13:48.067Z,4.00
2023-03-26T07:16:55.899Z,4.40
2023-03-26T07:20:02.403Z,3.50
2023-03-26T07:23:08.971Z,3.10
2023-03-26T07:26:17.449Z,3.20
2023-03-26T07:29:22.227Z,3.10
2023-03-26T07:32:48.348Z,3.30
2023-03-26T07:36:18.008Z,2.90
2023-03-26T07:39:36.798Z,5.80
2023-03-26T07:42:52.697Z,5.40
2023-03-26T07:45:58.388Z,5.10
2023-03-26T07:48:55.131Z,3.40
2023-03-26T07:51:51.536Z,1.60
2023-03-26T07:54:41.266Z,3.30
2023-03-26T07:57:50.877Z,1.80
2023-03-26T08:00:50.816Z,2.50
2023-03-26T08:03:54.091Z,2.10
2023-03-26T08:07:03.650Z,2.00
2023-03-26T08:10:09.137Z,1.30
2023-03-26T08:13:37.954Z,1.70
2023-03-26T08:16:24.549Z,1.80
2023-03-26T08:19:14.457Z,3.20
2023-03-26T08:22:03.053Z,1.70
2023-03-26T08:24:50.656Z,4.80
2023-03-26T08:27:41.119Z,2.20
2023-03-26T08:30:24.138Z,1.60
2023-03-26T08:33:12.414Z,1.30
2023-03-26T08:35:51.766Z,1.30
2023-03-26T08:38:28.347Z,1.50
2023-03-26T08:41:49.177Z,1.30
2023-03-26T08:45:00.996Z,1.40
2023-03-26T08:48:14.500Z,1.10
2023-03-26T08:51:21.002Z,1.00
2023-03-26T08:54:18.675Z,1.20
2023-03-26T08:57:04.469Z,1.00
2023-03-26T09:00:14.611Z,1.10
2023-03-26T09:03:17.396Z,1.30
2023-03-26T09:06:29.971Z,1.60
2023-03-26T09:10:12.681Z,1.80
2023-03-26T09:13:27.993Z,3.10
2023-03-26T09:16:34.287Z,1.90
2023-03-26T09:20:02.448Z,3.70
2023-03-26T09:23:19.314Z,5.30
2023-03-26T09:26:14.117Z,2.80
2023-03-26T09:29:40.057Z,1.30
2023-03-26T09:32:43.906Z,1.40
2023-03-26T09:35:41.271Z,1.70
2023-03-26T09:38:40.177Z,1.90
2023-03-26T09:41:25.054Z,2.20
2023-03-26T09:44:31.376Z,23.90
2023-03-26T09:47:38.298Z,9.10
2023-03-26T09:50:37.796Z,1.60
2023-03-26T09:54:01.458Z,2.20
2023-03-26T09:56:51.392Z,1.50
2023-03-26T09:59:57.258Z,1.70
2023-03-26T10:02:50.726Z,1.50
2023-03-26T10:05:45.220Z,2.30
2023-03-26T10:08:42.231Z,1.40
2023-03-26T10:11:26.156Z,1.40
2023-03-26T10:14:15.622Z,2.30
2023-03-26T10:17:06.637Z,2.40
2023-03-26T10:19:54.822Z,1.50
2023-03-26T10:22:47.642Z,1.30
2023-03-26T10:26:03.113Z,1.60
2023-03-26T10:28:57.092Z,1.50
2023-03-26T10:32:25.579Z,1.50
2023-03-26T10:35:22.964Z,1.40
2023-03-26T10:38:17.408Z,1.00
2023-03-26T10:41:08.046Z,1.20
2023-03-26T10:44:09.251Z,1.60
2023-03-26T10:47:29.372Z,1.10
2023-03-26T10:50:37.943Z,1.00
2023-03-26T10:53:22.723Z,1.00
2023-03-26T10:56:03.249Z,1.00
2023-03-26T10:58:49.204Z,3.30
2023-03-26T11:01:44.034Z,1.20
2023-03-26T11:04:40.303Z,1.00
2023-03-26T11:07:28.650Z,1.50
2023-03-26T11:10:17.228Z,1.30
2023-03-26T11:13:03.886Z,1.10
2023-03-26T11:15:48.278Z,1.10
2023-03-26T11:18:31.396Z,1.10
2023-03-26T11:21:20.828Z,1.20
2023-03-26T11:24:16.741Z,1.10
2023-03-26T11:27:15.439Z,1.10
2023-03-26T11:30:15.232Z,1.30
2023-03-26T11:33:04.280Z,1.20
2023-03-26T11:35:47.019Z,1.20
2023-03-26T11:38:27.963Z,1.00
2023-03-26T11:41:22.815Z,0.90
2023-03-26T11:44:27.074Z,0.80
2023-03-26T11:47:17.478Z,1.40
2023-03-26T11:49:57.668Z,1.10
2023-03-26T11:52:37.942Z,1.30
2023-03-26T11:55:18.515Z,1.40
2023-03-26T11:58:03.664Z,1.20
2023-03-26T12:00:40.454Z,1.00
2023-03-26T12:03:22.033Z,1.30
2023-03-26T12:06:03.019Z,2.20
2023-03-26T12:08:43.661Z,1.40
2023-03-26T12:11:27.486Z,1.30
2023-03-26T12:14:07.750Z,1.30
2023-03-26T12:17:01.067Z,1.80
2023-03-26T12:19:47.660Z,1.60
2023-03-26T12:22:39.278Z,1.80
2023-03-26T12:25:32.216Z,1.60
2023-03-26T12:28:19.487Z,1.60
2023-03-26T12:31:05.671Z,1.50
2023-03-26T12:33:47.562Z,1.70
2023-03-26T12:36:32.073Z,1.60
2023-03-26T12:40:06.775Z,1.20
2023-03-26T12:44:51.112Z,1.50
2023-03-26T12:45:45.918Z,1.50
2023-03-26T12:48:42.020Z,1.10
2023-03-26T12:51:32.746Z,1.50
2023-03-26T12:54:29.954Z,1.20
2023-03-26T12:57:22.248Z,1.70
2023-03-26T13:00:11.421Z,1.60
2023-03-26T13:03:12.565Z,1.50
2023-03-26T13:06:00.718Z,1.30
2023-03-26T13:09:01.561Z,1.20
2023-03-26T13:11:49.789Z,5.10
2023-03-26T13:17:56.675Z,2.20
2023-03-26T13:21:00.661Z,2.60
2023-03-26T13:23:47.993Z,2.20
2023-03-26T13:26:52.246Z,1.30
2023-03-26T13:29:36.892Z,1.00
2023-03-26T13:32:21.480Z,0.90
2023-03-26T13:35:12.463Z,1.60
2023-03-26T13:37:59.522Z,3.30
2023-03-26T13:40:52.347Z,1.30
2023-03-26T13:46:43.489Z,1.00
2023-03-26T13:49:27.164Z,0.90
2023-03-26T13:52:09.987Z,1.10
2023-03-26T13:54:53.872Z,0.80
2023-03-26T13:57:35.313Z,1.00
2023-03-26T14:00:18.443Z,0.90
2023-03-26T14:03:03.505Z,1.00
2023-03-26T14:05:47.641Z,1.00
2023-03-26T14:08:32.728Z,1.00
2023-03-26T14:11:14.693Z,1.00
2023-03-26T14:14:03.856Z,0.90
2023-03-26T14:16:51.419Z,1.00
2023-03-26T14:22:51.542Z,0.70
2023-03-26T14:25:57.976Z,0.90
2023-03-26T14:29:06.480Z,1.00
2023-03-26T14:31:53.902Z,1.10
2023-03-26T14:34:48.046Z,0.90
2023-03-26T14:38:01.226Z,1.10
2023-03-26T14:40:59.368Z,1.00
2023-03-26T14:44:01.857Z,0.90
2023-03-26T14:46:52.095Z,0.90
2023-03-26T14:50:20.550Z,1.10
2023-03-26T14:53:25.535Z,1.10
2023-03-26T14:56:47.947Z,1.00
2023-03-26T14:59:57.232Z,0.90
2023-03-26T15:03:04.209Z,1.30
2023-03-26T15:06:17.141Z,1.40
2023-03-26T15:09:17.688Z,1.40
2023-03-26T15:12:12.523Z,1.50
2023-03-26T15:15:42.076Z,1.10
2023-03-26T15:19:07.221Z,1.70
2023-03-26T15:22:18.876Z,0.90
2023-03-26T15:25:35.122Z,1.40
2023-03-26T15:29:03.982Z,1.50
2023-03-26T15:32:22.581Z,1.30
2023-03-26T15:35:23.180Z,1.10
2023-03-26T15:38:40.724Z,1.50
2023-03-26T15:41:37.138Z,1.70
2023-03-26T15:44:43.757Z,1.50
2023-03-26T15:47:52.484Z,1.50
2023-03-26T15:51:11.080Z,2.20
2023-03-26T15:54:00.105Z,1.50
2023-03-26T15:56:58.222Z,1.90
2023-03-26T15:59:50.979Z,2.00
2023-03-26T16:02:41.865Z,2.60
2023-03-26T16:05:39.240Z,2.20
2023-03-26T16:08:29.645Z,1.90
2023-03-26T16:11:21.476Z,3.30
2023-03-26T16:14:23.346Z,1.50
2023-03-26T16:17:09.030Z,1.20
2023-03-26T16:20:14.836Z,1.20
2023-03-26T16:23:06.425Z,1.30
2023-03-26T16:26:00.706Z,1.10
2023-03-26T16:28:59.887Z,1.40
2023-03-26T16:31:39.480Z,1.60
2023-03-26T16:34:40.961Z,1.50
2023-03-26T16:37:46.433Z,1.60
2023-03-26T16:40:40.988Z,2.30
2023-03-26T16:43:47.039Z,1.90
2023-03-26T16:46:35.717Z,1.80
2023-03-26T16:49:29.851Z,2.30
2023-03-26T16:52:16.620Z,2.20
2023-03-26T16:55:08.107Z,2.30
2023-03-26T16:57:57.089Z,2.10
2023-03-26T17:00:57.884Z,1.90
2023-03-26T17:03:46.335Z,2.10
2023-03-26T17:06:35.149Z,2.60
2023-03-26T17:09:30.622Z,2.50
2023-03-26T17:12:18.988Z,2.50
2023-03-26T17:15:06.768Z,3.30
2023-03-26T17:18:03.691Z,4.20
2023-03-26T17:20:41.349Z,7.00
2023-03-26T17:23:29.443Z,5.90
2023-03-26T17:26:23.249Z,4.90
2023-03-26T17:29:13.541Z,3.30
2023-03-26T17:32:01.978Z,2.90
2023-03-26T17:35:01.602Z,3.90
2023-03-26T17:37:52.272Z,3.30
2023-03-26T17:40:46.985Z,3.70
2023-03-26T17:43:40.987Z,3.60
2023-03-26T17:46:33.771Z,5.70
2023-03-26T17:49:17.251Z,5.40
2023-03-26T17:51:59.939Z,4.60
2023-03-26T17:54:41.873Z,4.90
2023-03-26T17:57:31.002Z,5.40
2023-03-26T18:00:22.965Z,6.90
2023-03-26T18:03:04.334Z,8.80
2023-03-26T18:06:07.729Z,11.50
2023-03-26T18:09:14.127Z,13.80
2023-03-26T18:12:17.719Z,12.80
2023-03-26T18:15:23.436Z,9.90
2023-03-26T18:18:11.063Z,8.80
2023-03-26T18:20:49.103Z,9.80
2023-03-26T18:23:31.855Z,10.10
2023-03-26T18:26:18.949Z,9.50
2023-03-26T18:29:14.626Z,9.00
2023-03-26T18:31:50.112Z,6.10
2023-03-26T18:34:28.322Z,6.20
2023-03-26T18:37:19.993Z,5.90
2023-03-26T18:40:19.809Z,5.40
2023-03-26T18:42:59.227Z,4.60
2023-03-26T18:45:39.698Z,5.30
2023-03-26T18:48:22.797Z,5.80
2023-03-26T18:51:04.980Z,8.20
2023-03-26T18:53:47.327Z,10.20
2023-03-26T18:56:35.702Z,7.30
2023-03-26T18:59:28.517Z,12.30
2023-03-26T19:02:07.999Z,12.70
2023-03-26T19:04:50.098Z,12.50
2023-03-26T19:07:29.678Z,13.90
2023-03-26T19:10:07.491Z,15.40
2023-03-26T19:12:45.248Z,12.50
2023-03-26T19:15:24.628Z,11.30
2023-03-26T19:18:16.765Z,10.50
2023-03-26T19:20:55.909Z,12.30
2023-03-26T19:23:38.446Z,13.80
2023-03-26T19:26:17.021Z,12.70
2023-03-26T19:28:56.622Z,14.40
2023-03-26T19:31:43.647Z,15.20
2023-03-26T19:34:34.839Z,17.50
2023-03-26T19:37:21.891Z,18.40
2023-03-26T19:40:15.388Z,15.60
2023-03-26T19:42:53.863Z,10.20
2023-03-26T19:45:34.855Z,9.40
2023-03-26T19:48:17.421Z,8.30
2023-03-26T19:51:05.555Z,8.40
2023-03-26T19:53:46.566Z,8.80
2023-03-26T19:56:24.143Z,8.60
2023-03-26T19:58:59.320Z,8.80
2023-03-26T20:01:40.900Z,8.40
2023-03-26T20:04:18.122Z,7.30
2023-03-26T20:06:53.079Z,8.20
2023-03-26T20:09:29.380Z,7.30
2023-03-26T20:12:04.826Z,6.90
2023-03-26T20:14:43.874Z,6.90
2023-03-26T20:17:22.659Z,7.60
2023-03-26T20:19:59.308Z,7.00
2023-03-26T20:22:35.302Z,7.00
2023-03-26T20:25:21.203Z,6.60
2023-03-26T20:27:59.493Z,6.20
2023-03-26T20:30:37.986Z,6.40
2023-03-26T20:33:21.656Z,5.90
2023-03-26T20:35:59.510Z,6.20
2023-03-26T20:38:39.454Z,5.90
2023-03-26T20:41:18.933Z,6.30
2023-03-26T20:43:54.492Z,5.20
2023-03-26T20:46:33.512Z,5.50
2023-03-26T20:49:11.537Z,5.90
2023-03-26T20:51:49.843Z,5.20
2023-03-26T20:54:27.034Z,5.20
2023-03-26T20:57:02.880Z,5.80
2023-03-26T20:59:39.762Z,5.90
2023-03-26T21:02:16.997Z,5.70
2023-03-26T21:04:54.599Z,5.40
2023-03-26T21:07:33.403Z,5.90
2023-03-26T21:10:13.568Z,5.30
2023-03-26T21:12:53.894Z,5.70
2023-03-26T21:15:34.797Z,6.10
2023-03-26T21:18:10.384Z,5.50
2023-03-26T21:20:56.963Z,5.40
2023-03-26T21:23:40.505Z,5.80
2023-03-26T21:26:20.791Z,6.30
2023-03-26T21:29:01.287Z,6.00
2023-03-26T21:31:39.592Z,5.80
2023-03-26T21:34:18.020Z,5.50
2023-03-26T21:36:56.341Z,5.70
2023-03-26T21:39:42.156Z,5.20
2023-03-26T21:42:22.086Z,5.50
2023-03-26T21:45:00.158Z,5.50
2023-03-26T21:47:37.020Z,6.00
2023-03-26T21:50:17.318Z,5.50
2023-03-26T21:52:57.151Z,6.20
2023-03-26T21:55:37.100Z,5.50
2023-03-26T21:58:42.749Z,5.40
2023-03-26T22:01:50.312Z,5.10
2023-03-26T22:04:37.571Z,5.40
2023-03-26T22:07:21.285Z,5.70
2023-03-26T22:09:58.885Z,5.30
2023-03-26T22:12:44.149Z,5.70
2023-03-26T22:15:19.981Z,5.70
2023-03-26T22:17:55.965Z,6.00
2023-03-26T22:20:30.921Z,5.80
2023-03-26T22:23:08.273Z,5.70
2023-03-26T22:25:42.763Z,5.80
2023-03-26T22:28:19.353Z,5.60
2023-03-26T22:30:54.888Z,5.40
2023-03-26T22:33:31.100Z,5.40
2023-03-26T22:36:06.156Z,6.50
2023-03-26T22:38:59.885Z,6.70
2023-03-26T22:41:35.121Z,5.60
2023-03-26T22:44:19.717Z,5.50
2023-03-26T22:46:57.703Z,5.80
2023-03-26T22:49:33.844Z,5.80
2023-03-26T22:52:10.940Z,5.80
2023-03-26T22:54:47.652Z,6.50
2023-03-26T22:57:33.247Z,5.80
2023-03-26T23:00:27.221Z,5.80
2023-03-26T23:03:03.086Z,6.50
2023-03-26T23:05:38.879Z,5.70
2023-03-26T23:08:18.412Z,5.50
2023-03-26T23:10:55.023Z,5.80
2023-03-26T23:13:31.435Z,5.70
2023-03-26T23:16:11.393Z,5.40
2023-03-26T23:18:49.495Z,5.60
2023-03-26T23:21:27.269Z,5.90
2023-03-26T23:24:06.038Z,5.90
2023-03-26T23:26:50.592Z,5.70
2023-03-26T23:29:34.448Z,5.60
2023-03-26T23:32:23.610Z,6.10
2023-03-26T23:35:01.863Z,5.70
2023-03-26T23:37:42.634Z,5.90
2023-03-26T23:40:21.126Z,5.40
2023-03-26T23:42:58.199Z,5.10
2023-03-26T23:45:42.362Z,5.30
2023-03-26T23:48:22.481Z,5.70
2023-03-26T23:51:03.453Z,5.70
2023-03-26T23:53:40.032Z,6.30
2023-03-26T23:56:17.292Z,5.90
2023-03-26T23:58:54.318Z,5.90
